CYCK

Chatham Kent Airport

Chatham-Kent, Ontario, Canada
METAR CYCK 221800Z AUTO 09013G21KT 9SM CLR 14/M04 A3039 RMK TS/LTNG TEMPO UNAVBL SLP299
Observed Flight Rules
Apr-22 @ 18:00 UTC (22 minutes ago) Visual Flight Rules
Wind Visibility Clouds
90° at 13 knots
 Gusting to 21 knots
9 miles
  • Clear skies
Temperatures Readings
Current 14°C / 57°F
Dewpoint -4°C / 25°F
Humidity 29%
Altimeter 30.39" Hg
Pressure 1029.9 hPa
Elevation 198
METAR CYCK 221800Z AUTO 09013G21KT 9SM CLR 14/M04 A3039 RMK TS/LTNG TEMPO UNAVBL SLP299
Observed Flight Rules
Apr-22 @ 18:00 UTC
(22 minutes ago)
VFR
Wind Visibility
90° at 13 knots
 Gusting to 21 knots
9 miles
Clouds
  • Clear skies
Temperature Dewpoint
14°C / 57°F -4°C / 25°F
Humidity Altimeter Pressure
29% 30.39" Hg 1029.9 hPa